Time;durP1;ratioP1;P1;durP2;ratioP2;P2;SDS_P1;SDS_P2;PMS_P1;PMS_P2;Temp;Humidity;BMP_temperature;BMP_pressure;BME280_temperature;BME280_humidity;BME280_pressure;Samples;Min_cycle;Max_cycle;Signal;HPM_P1;HPM_P2
2023/09/26 00:01:04;;;;;;;50.67;48.67;;;;;;;10.73;100.00;102378.09;4975571;28;20886;-46
2023/09/26 00:03:31;;;;;;;50.53;48.53;;;;;;;10.70;100.00;102378.41;4975494;28;20477;-40
2023/09/26 00:05:59;;;;;;;53.70;51.77;;;;;;;10.71;100.00;102379.25;4974960;28;20458;-41
2023/09/26 00:08:28;;;;;;;52.63;50.43;;;;;;;10.64;100.00;102381.72;4975596;28;20478;-45
2023/09/26 00:10:57;;;;;;;55.70;53.00;;;;;;;10.63;100.00;102381.88;4975726;28;20451;-38
2023/09/26 00:13:24;;;;;;;57.33;54.97;;;;;;;10.62;100.00;102388.22;4974994;28;20993;-39
2023/09/26 00:15:52;;;;;;;55.70;53.50;;;;;;;10.68;100.00;102384.91;4974476;28;21036;-40
2023/09/26 00:18:20;;;;;;;57.53;55.23;;;;;;;10.65;100.00;102375.41;4975250;28;20447;-39
2023/09/26 00:20:48;;;;;;;54.40;52.20;;;;;;;10.64;100.00;102384.38;4975263;28;20572;-40
2023/09/26 00:23:16;;;;;;;56.73;54.60;;;;;;;10.62;100.00;102386.38;4975102;28;20466;-41
2023/09/26 00:25:45;;;;;;;56.87;54.47;;;;;;;10.62;100.00;102388.22;4975021;28;21002;-41
2023/09/26 00:28:12;;;;;;;61.77;59.23;;;;;;;10.62;100.00;102382.88;4977396;28;20435;-40
2023/09/26 00:30:41;;;;;;;58.00;55.77;;;;;;;10.59;100.00;102389.38;4974626;28;20935;-39
2023/09/26 00:33:09;;;;;;;61.03;58.27;;;;;;;10.57;100.00;102387.84;4975293;28;20541;-40
2023/09/26 00:35:37;;;;;;;59.33;57.13;;;;;;;10.53;100.00;102381.97;4974590;28;20462;-39
2023/09/26 00:38:05;;;;;;;58.70;56.53;;;;;;;10.51;100.00;102379.47;4974966;28;20449;-39
2023/09/26 00:40:33;;;;;;;59.13;56.83;;;;;;;10.47;100.00;102375.44;4982082;28;20501;-41
2023/09/26 00:43:02;;;;;;;59.30;56.80;;;;;;;10.38;100.00;102383.53;4974624;28;20497;-39
2023/09/26 00:45:30;;;;;;;58.20;55.97;;;;;;;10.35;100.00;102384.69;4974821;28;20463;-39
2023/09/26 00:47:59;;;;;;;64.03;61.53;;;;;;;10.32;100.00;102373.50;4974856;28;20807;-42
2023/09/26 00:50:27;;;;;;;62.20;59.90;;;;;;;10.33;100.00;102383.19;4974602;28;20435;-44
2023/09/26 00:52:55;;;;;;;63.97;61.47;;;;;;;10.38;100.00;102384.38;4975156;28;20490;-40
2023/09/26 00:55:23;;;;;;;67.67;65.17;;;;;;;10.36;100.00;102394.34;4973994;28;20454;-40
2023/09/26 00:57:54;;;;;;;62.67;60.23;;;;;;;10.36;100.00;102386.34;4974722;28;20447;-44
2023/09/26 01:00:26;;;;;;;67.50;65.10;;;;;;;10.38;100.00;102378.22;4974249;28;20442;-39
2023/09/26 01:02:53;;;;;;;66.13;63.70;;;;;;;10.38;100.00;102380.88;4974873;28;20834;-39
2023/09/26 01:05:21;;;;;;;66.93;64.40;;;;;;;10.35;100.00;102379.34;4974161;28;20450;-42
2023/09/26 01:07:50;;;;;;;65.30;62.80;;;;;;;10.35;100.00;102378.50;4974809;28;20493;-41
2023/09/26 01:10:18;;;;;;;65.67;63.03;;;;;;;10.33;100.00;102380.50;4975689;28;20824;-39
2023/09/26 01:12:46;;;;;;;65.97;63.30;;;;;;;10.31;100.00;102374.47;4981792;28;20826;-40
2023/09/26 01:15:14;;;;;;;66.57;63.90;;;;;;;10.30;100.00;102380.81;4974439;28;20830;-43
2023/09/26 01:17:43;;;;;;;66.40;63.90;;;;;;;10.31;100.00;102363.81;4974761;28;20446;-40
2023/09/26 01:20:13;;;;;;;68.97;66.40;;;;;;;10.26;100.00;102369.63;4974827;28;20439;-39
2023/09/26 01:22:45;;;;;;;71.30;68.80;;;;;;;10.23;100.00;102367.25;4973976;28;20510;-46
2023/09/26 01:25:15;;;;;;;73.03;70.40;;;;;;;10.21;100.00;102376.41;4973799;28;20490;-39
2023/09/26 01:27:43;;;;;;;74.60;71.77;;;;;;;10.18;100.00;102372.22;4976589;28;20447;-38
2023/09/26 01:30:12;;;;;;;75.10;72.27;;;;;;;10.14;100.00;102368.19;4973722;28;20589;-41
2023/09/26 01:32:40;;;;;;;75.30;72.33;;;;;;;10.13;100.00;102371.84;4973649;28;20510;-39
2023/09/26 01:35:08;;;;;;;75.60;73.00;;;;;;;10.08;100.00;102359.94;4981206;28;20522;-38
2023/09/26 01:37:36;;;;;;;75.23;72.43;;;;;;;10.06;100.00;102353.94;4974167;28;20431;-38
2023/09/26 01:40:09;;;;;;;78.53;75.73;;;;;;;10.01;100.00;102351.72;4973673;28;20496;-40
2023/09/26 01:42:38;;;;;;;73.07;70.23;;;;;;;9.96;100.00;102349.53;4973357;28;20470;-38
2023/09/26 01:45:08;;;;;;;75.63;72.83;;;;;;;9.94;100.00;102342.69;4973206;28;20443;-44
2023/09/26 01:47:42;;;;;;;77.47;74.67;;;;;;;9.92;100.00;102348.16;4973329;28;20515;-39
2023/09/26 01:50:10;;;;;;;73.97;71.10;;;;;;;9.93;100.00;102347.16;4974067;28;20458;-39
2023/09/26 01:52:38;;;;;;;73.20;70.50;;;;;;;9.88;100.00;102356.59;4972978;28;20997;-39
2023/09/26 01:55:08;;;;;;;75.83;73.00;;;;;;;9.92;100.00;102347.31;4972810;28;20445;-42
2023/09/26 01:57:36;;;;;;;75.77;72.93;;;;;;;9.92;100.00;102353.47;4973309;28;20923;-41
2023/09/26 02:00:11;;;;;;;75.27;72.27;;;;;;;9.90;100.00;102343.97;4973472;28;20994;-38
2023/09/26 02:02:40;;;;;;;74.47;71.47;;;;;;;9.82;100.00;102349.22;4972678;28;20474;-39
2023/09/26 02:05:09;;;;;;;72.20;69.30;;;;;;;9.79;100.00;102349.53;4972790;28;20903;-40
2023/09/26 02:07:37;;;;;;;71.40;68.70;;;;;;;9.76;100.00;102348.00;4973065;28;20431;-41
2023/09/26 02:10:05;;;;;;;75.90;73.20;;;;;;;9.76;100.00;102357.81;4972772;28;21001;-40
2023/09/26 02:12:35;;;;;;;82.50;79.40;;;;;;;9.82;100.00;102360.72;4972394;28;20462;-38
2023/09/26 02:15:05;;;;;;;80.70;77.70;;;;;;;9.81;100.00;102348.38;4972960;28;20513;-39
2023/09/26 02:17:35;;;;;;;75.10;72.30;;;;;;;9.80;100.00;102345.84;4972388;28;20961;-39
2023/09/26 02:20:08;;;;;;;75.00;72.30;;;;;;;9.75;100.00;102353.47;4972894;28;20443;-41
2023/09/26 02:22:36;;;;;;;78.80;75.90;;;;;;;9.71;100.00;102355.59;4972252;28;20478;-39
2023/09/26 02:25:05;;;;;;;76.60;73.80;;;;;;;9.70;100.00;102353.09;4971873;28;20462;-43
2023/09/26 02:27:32;;;;;;;75.53;72.63;;;;;;;9.64;100.00;102346.56;4975809;28;20439;-39
2023/09/26 02:30:00;;;;;;;75.57;72.87;;;;;;;9.63;100.00;102344.88;4972895;28;20443;-38
2023/09/26 02:32:28;;;;;;;74.10;71.40;;;;;;;9.60;100.00;102342.50;4971999;28;20451;-41
2023/09/26 02:34:57;;;;;;;77.47;74.47;;;;;;;9.59;100.00;102338.16;4972208;28;20442;-40
2023/09/26 02:37:25;;;;;;;79.67;76.87;;;;;;;9.58;100.00;102341.84;4972428;28;20449;-40
2023/09/26 02:39:52;;;;;;;74.90;72.20;;;;;;;9.62;100.00;102335.19;4973244;28;21063;-39
2023/09/26 02:42:20;;;;;;;91.10;87.67;;;;;;;9.60;100.00;102328.34;4975888;28;20486;-41
2023/09/26 02:44:48;;;;;;;84.43;81.43;;;;;;;9.65;100.00;102323.41;4976040;28;20464;-44
2023/09/26 02:47:16;;;;;;;84.40;81.30;;;;;;;9.69;100.00;102332.78;4975613;28;20502;-39
2023/09/26 02:49:44;;;;;;;81.10;78.10;;;;;;;9.69;100.00;102330.09;4976131;28;20466;-42
2023/09/26 02:52:12;;;;;;;88.90;85.90;;;;;;;9.71;100.00;102330.78;4975616;28;20461;-39
2023/09/26 02:54:40;;;;;;;84.33;81.23;;;;;;;9.72;100.00;102327.97;4984201;28;20443;-39
2023/09/26 02:57:08;;;;;;;83.47;80.50;;;;;;;9.72;100.00;102327.97;4975465;28;20891;-41
2023/09/26 02:59:36;;;;;;;78.23;75.43;;;;;;;9.68;100.00;102326.59;4975693;28;20438;-39
2023/09/26 03:02:04;;;;;;;89.23;85.87;;;;;;;9.66;100.00;102328.59;4975532;28;20474;-43
2023/09/26 03:04:32;;;;;;;84.00;80.90;;;;;;;9.63;100.00;102328.06;4975620;28;20442;-42
2023/09/26 03:06:59;;;;;;;82.83;79.83;;;;;;;9.59;100.00;102329.38;4975118;28;20468;-38
2023/09/26 03:09:28;;;;;;;83.03;79.73;;;;;;;9.56;100.00;102322.50;4975566;28;20529;-40
2023/09/26 03:11:56;;;;;;;80.77;77.67;;;;;;;9.54;100.00;102315.66;4975468;28;20530;-38
2023/09/26 03:14:25;;;;;;;81.80;78.70;;;;;;;9.52;100.00;102309.66;4975523;28;20578;-39
2023/09/26 03:16:52;;;;;;;83.17;80.20;;;;;;;9.50;100.00;102306.31;4974967;28;20486;-39
2023/09/26 03:19:23;;;;;;;81.03;77.93;;;;;;;9.51;100.00;102305.28;4975290;28;20446;-38
2023/09/26 03:21:51;;;;;;;80.80;77.93;;;;;;;9.51;100.00;102314.13;4980159;28;20535;-39
2023/09/26 03:24:20;;;;;;;80.00;77.00;;;;;;;9.51;100.00;102308.81;4994660;28;20441;-40
2023/09/26 03:26:49;;;;;;;87.57;84.30;;;;;;;9.55;100.00;102306.69;4978649;28;20545;-40
2023/09/26 03:29:16;;;;;;;83.70;80.60;;;;;;;9.53;100.00;102306.81;4975358;28;20446;-40
2023/09/26 03:31:45;;;;;;;82.37;79.47;;;;;;;9.54;100.00;102303.16;4982752;28;20434;-38
2023/09/26 03:34:14;;;;;;;86.03;82.80;;;;;;;9.55;100.00;102301.34;4983542;28;20435;-39
2023/09/26 03:36:41;;;;;;;85.63;82.33;;;;;;;9.55;100.00;102302.19;4974685;28;20467;-38
2023/09/26 03:39:10;;;;;;;82.67;79.47;;;;;;;9.54;100.00;102305.00;4975251;28;20439;-38
2023/09/26 03:41:37;;;;;;;81.70;78.70;;;;;;;9.54;100.00;102312.97;4974537;28;20474;-39
2023/09/26 03:44:07;;;;;;;87.00;83.80;;;;;;;9.53;100.00;102311.31;4975032;28;20481;-38
2023/09/26 03:46:34;;;;;;;84.87;81.87;;;;;;;9.53;100.00;102309.47;4982523;28;20486;-43
2023/09/26 03:49:03;;;;;;;81.67;78.77;;;;;;;9.52;100.00;102305.16;4981015;28;20440;-40
2023/09/26 03:51:31;;;;;;;85.80;82.60;;;;;;;9.56;100.00;102314.50;4991398;28;20829;-43
2023/09/26 03:53:58;;;;;;;85.10;81.80;;;;;;;9.51;100.00;102314.13;4988329;28;20449;-39
2023/09/26 03:56:26;;;;;;;83.40;80.20;;;;;;;9.52;100.00;102317.63;4976574;28;20982;-40
2023/09/26 03:58:54;;;;;;;87.13;83.73;;;;;;;9.52;100.00;102309.66;4974627;28;20511;-43
2023/09/26 04:01:23;;;;;;;88.27;85.07;;;;;;;9.54;100.00;102305.84;4982690;28;20439;-38
2023/09/26 04:03:52;;;;;;;83.30;80.07;;;;;;;9.58;100.00;102301.03;4974982;28;20532;-39
2023/09/26 04:06:20;;;;;;;85.33;81.63;;;;;;;9.59;100.00;102298.22;4974113;28;20470;-40
2023/09/26 04:08:48;;;;;;;83.10;80.00;;;;;;;9.60;100.00;102299.91;4974466;28;20441;-39
2023/09/26 04:11:16;;;;;;;87.23;83.93;;;;;;;9.69;100.00;102300.81;4981834;28;20469;-38
2023/09/26 04:13:44;;;;;;;89.23;85.83;;;;;;;9.72;100.00;102298.69;4974506;28;20521;-39
2023/09/26 04:16:12;;;;;;;91.47;88.07;;;;;;;9.73;100.00;102295.03;4974147;28;20517;-39
2023/09/26 04:18:41;;;;;;;92.30;88.70;;;;;;;9.79;100.00;102301.56;4974154;28;20958;-38
2023/09/26 04:21:09;;;;;;;92.37;88.50;;;;;;;9.74;100.00;102290.53;4974120;28;20497;-38
2023/09/26 04:23:39;;;;;;;91.83;88.50;;;;;;;9.76;100.00;102296.56;4974304;28;20553;-40
2023/09/26 04:26:10;;;;;;;96.27;92.63;;;;;;;9.78;100.00;102299.88;4975977;28;20511;-40
2023/09/26 04:28:38;;;;;;;91.47;87.83;;;;;;;9.79;100.00;102305.09;4975225;28;20788;-38
2023/09/26 04:31:05;;;;;;;93.97;90.17;;;;;;;9.81;100.00;102299.59;4974103;28;20439;-41
2023/09/26 04:33:33;;;;;;;96.27;92.53;;;;;;;9.83;100.00;102308.25;4973786;28;20973;-39
2023/09/26 04:36:02;;;;;;;94.63;90.67;;;;;;;9.85;100.00;102300.97;4973541;28;20497;-38
2023/09/26 04:38:30;;;;;;;94.83;90.87;;;;;;;9.87;100.00;102312.28;4973730;28;20946;-38
2023/09/26 04:41:00;;;;;;;96.30;92.70;;;;;;;9.87;100.00;102293.63;4982058;28;20533;-40
2023/09/26 04:43:28;;;;;;;98.17;94.57;;;;;;;9.85;100.00;102292.97;4973515;28;20510;-41
2023/09/26 04:45:56;;;;;;;97.80;94.30;;;;;;;9.88;100.00;102279.34;4973537;28;20486;-38
2023/09/26 04:48:24;;;;;;;101.27;97.43;;;;;;;9.88;100.00;102284.66;4981819;28;20497;-39
2023/09/26 04:50:51;;;;;;;98.50;94.80;;;;;;;9.86;100.00;102291.97;4973426;28;20672;-39
2023/09/26 04:53:21;;;;;;;97.57;93.97;;;;;;;9.84;100.00;102277.97;4973753;28;20970;-41
2023/09/26 04:55:49;;;;;;;101.30;97.43;;;;;;;9.88;100.00;102287.34;4969290;28;20468;-42
2023/09/26 04:58:17;;;;;;;106.00;102.00;;;;;;;9.92;100.00;102278.00;4993249;28;20802;-38
2023/09/26 05:00:44;;;;;;;104.63;100.73;;;;;;;9.88;100.00;102284.66;4981201;28;20435;-38
2023/09/26 05:03:14;;;;;;;100.23;96.60;;;;;;;9.86;100.00;102281.28;4973008;28;20518;-41
2023/09/26 05:05:43;;;;;;;102.70;98.90;;;;;;;9.89;100.00;102284.50;4972831;28;20894;-42
2023/09/26 05:08:11;;;;;;;99.77;95.67;;;;;;;9.91;100.00;102287.88;4973726;28;20431;-38
2023/09/26 05:10:40;;;;;;;101.00;97.10;;;;;;;9.89;100.00;102289.81;4975643;28;20510;-38
2023/09/26 05:13:08;;;;;;;101.30;97.43;;;;;;;9.93;100.00;102293.03;4992767;28;20528;-38
2023/09/26 05:15:36;;;;;;;102.00;98.20;;;;;;;9.95;100.00;102299.88;4974736;28;20467;-39
2023/09/26 05:18:05;;;;;;;97.50;93.90;;;;;;;9.98;100.00;102302.22;4973142;28;20445;-43
2023/09/26 05:20:33;;;;;;;99.30;95.60;;;;;;;10.01;100.00;102307.25;4973236;28;20518;-39
2023/09/26 05:23:01;;;;;;;93.53;89.90;;;;;;;10.05;100.00;102305.13;4973330;28;20918;-40
2023/09/26 05:25:29;;;;;;;89.50;86.20;;;;;;;10.03;100.00;102305.25;4972687;28;20546;-40
2023/09/26 05:27:59;;;;;;;94.80;91.20;;;;;;;10.06;100.00;102312.13;4977724;28;20435;-38
2023/09/26 05:30:27;;;;;;;94.50;90.70;;;;;;;10.06;100.00;102305.94;4972795;28;20435;-39
2023/09/26 05:32:54;;;;;;;94.03;90.33;;;;;;;10.13;100.00;102313.19;4973168;28;20554;-43
2023/09/26 05:35:24;;;;;;;89.07;85.77;;;;;;;10.19;100.00;102315.22;4972775;28;20525;-41
2023/09/26 05:37:52;;;;;;;90.30;86.90;;;;;;;10.20;100.00;102314.25;4972907;28;20501;-38
2023/09/26 05:40:20;;;;;;;88.20;84.80;;;;;;;10.27;100.00;102317.97;4972849;28;20450;-38
2023/09/26 05:42:48;;;;;;;89.53;85.93;;;;;;;10.31;100.00;102311.31;4972671;28;20517;-39
2023/09/26 05:45:17;;;;;;;92.03;88.43;;;;;;;10.39;100.00;102307.88;4972437;28;20497;-39
2023/09/26 05:47:44;;;;;;;89.43;85.73;;;;;;;10.42;100.00;102304.91;4972961;28;20443;-40
2023/09/26 05:50:13;;;;;;;84.77;81.30;;;;;;;10.48;100.00;102304.28;4972575;28;20443;-39
2023/09/26 05:52:41;;;;;;;84.87;81.60;;;;;;;10.52;100.00;102297.59;4980621;28;20518;-39
2023/09/26 05:55:09;;;;;;;84.80;81.60;;;;;;;10.58;100.00;102296.97;4972318;28;20487;-40
2023/09/26 05:57:37;;;;;;;82.73;79.57;;;;;;;10.63;100.00;102300.03;4972556;28;20526;-39
2023/09/26 06:00:11;;;;;;;84.27;81.07;;;;;;;10.78;100.00;102300.25;4980932;28;20501;-42
2023/09/26 06:02:41;;;;;;;67.37;64.33;;;;;;;11.59;100.00;102317.34;4980878;28;20461;-45
2023/09/26 06:05:09;;;;;;;53.83;51.43;;;;;;;11.93;100.00;102312.72;4973629;28;20481;-41
2023/09/26 06:07:37;;;;;;;60.33;57.73;;;;;;;12.03;100.00;102308.06;4973994;28;20439;-42
2023/09/26 06:10:06;;;;;;;60.00;57.37;;;;;;;12.24;100.00;102301.34;4973799;28;20439;-40
2023/09/26 06:12:37;;;;;;;57.30;54.70;;;;;;;12.49;100.00;102290.41;4973516;28;20458;-41
2023/09/26 06:15:06;;;;;;;50.23;48.03;;;;;;;12.74;100.00;102297.38;4980680;28;20527;-45
2023/09/26 06:17:33;;;;;;;54.93;52.37;;;;;;;12.94;100.00;102291.56;4981759;28;20457;-39
2023/09/26 06:20:07;;;;;;;55.57;52.40;;;;;;;13.08;100.00;102289.03;4978177;28;20434;-43
2023/09/26 06:22:35;;;;;;;51.47;48.67;;;;;;;13.25;100.00;102287.09;4976435;28;20542;-41
2023/09/26 06:25:04;;;;;;;51.40;48.70;;;;;;;13.27;100.00;102279.72;4984410;28;21096;-41
2023/09/26 06:27:35;;;;;;;54.10;51.70;;;;;;;13.26;100.00;102284.25;4979147;28;20445;-40
2023/09/26 06:30:04;;;;;;;53.37;51.17;;;;;;;13.29;100.00;102285.72;4973676;28;20459;-39
2023/09/26 06:32:32;;;;;;;54.37;52.17;;;;;;;13.32;100.00;102289.91;4973155;28;20459;-40
2023/09/26 06:35:00;;;;;;;55.27;52.97;;;;;;;13.36;100.00;102284.00;4972902;28;20450;-43
2023/09/26 06:37:29;;;;;;;64.00;59.27;;;;;;;13.43;100.00;102278.78;4973096;28;20443;-41
2023/09/26 06:40:00;;;;;;;57.83;55.23;;;;;;;13.45;100.00;102285.63;4977592;28;20537;-43
2023/09/26 06:42:28;;;;;;;55.27;53.07;;;;;;;13.58;100.00;102277.84;4976122;28;20459;-41
2023/09/26 06:44:55;;;;;;;58.60;56.20;;;;;;;13.69;100.00;102279.25;4972757;28;20501;-42
2023/09/26 06:47:24;;;;;;;56.83;54.33;;;;;;;13.80;100.00;102278.81;4973118;28;20875;-40
2023/09/26 06:49:52;;;;;;;59.80;57.47;;;;;;;13.89;100.00;102275.06;4980640;28;21310;-42
2023/09/26 06:52:22;;;;;;;54.03;51.83;;;;;;;14.11;100.00;102281.41;4973069;28;20465;-44
2023/09/26 06:54:51;;;;;;;55.00;52.80;;;;;;;14.20;100.00;102274.94;4973346;28;20522;-40
2023/09/26 06:57:26;;;;;;;55.93;53.63;;;;;;;14.30;100.00;102280.88;4973016;28;20954;-40
2023/09/26 06:59:55;;;;;;;59.20;56.73;;;;;;;14.34;100.00;102279.50;4973063;28;21036;-40
2023/09/26 07:02:24;;;;;;;64.60;61.77;;;;;;;14.30;100.00;102276.34;4980318;28;20496;-42
2023/09/26 07:04:54;;;;;;;63.57;60.77;;;;;;;14.37;100.00;102284.50;4980994;28;20474;-39
2023/09/26 07:07:23;;;;;;;63.00;60.43;;;;;;;14.45;100.00;102273.72;4973148;28;20993;-40
2023/09/26 07:09:53;;;;;;;63.27;60.47;;;;;;;14.65;100.00;102282.03;4973127;28;21005;-43
2023/09/26 07:12:21;;;;;;;63.10;60.40;;;;;;;14.76;100.00;102284.25;4972859;28;20459;-39
2023/09/26 07:14:48;;;;;;;58.43;55.93;;;;;;;15.08;100.00;102288.38;4980754;28;20462;-40
2023/09/26 07:17:16;;;;;;;54.33;51.53;;;;;;;15.45;100.00;102294.38;4972408;28;20466;-41
2023/09/26 07:19:44;;;;;;;50.60;48.30;;;;;;;15.89;100.00;102302.28;4972132;28;20466;-40
2023/09/26 07:22:11;;;;;;;46.50;44.30;;;;;;;16.41;100.00;102292.94;4971957;28;20459;-40
2023/09/26 07:24:39;;;;;;;43.03;40.97;;;;;;;16.90;100.00;102295.53;4972019;28;20565;-42
2023/09/26 07:27:18;;;;;;;39.77;38.00;;;;;;;17.48;100.00;102286.81;4979510;28;21064;-39
2023/09/26 07:29:46;;;;;;;39.70;38.00;;;;;;;17.73;100.00;102281.69;4975302;28;20469;-39
2023/09/26 07:32:15;;;;;;;40.63;38.73;;;;;;;17.99;100.00;102270.88;4975345;28;20462;-40
2023/09/26 07:34:43;;;;;;;41.90;39.70;;;;;;;18.21;100.00;102275.03;4985091;28;20790;-41
2023/09/26 07:37:11;;;;;;;33.87;32.23;;;;;;;18.51;100.00;102271.88;4988616;28;20509;-43
2023/09/26 07:39:40;;;;;;;37.17;35.03;;;;;;;18.43;100.00;102274.78;4974946;28;20485;-39
2023/09/26 07:42:07;;;;;;;37.00;35.40;;;;;;;18.29;100.00;102276.66;4974987;28;21047;-39
2023/09/26 07:44:37;;;;;;;34.63;33.03;;;;;;;18.07;100.00;102278.75;4975370;28;20484;-41
2023/09/26 07:47:04;;;;;;;37.20;35.60;;;;;;;17.86;100.00;102275.47;4975016;28;20481;-40
2023/09/26 07:49:32;;;;;;;35.03;33.43;;;;;;;17.85;100.00;102269.25;4974975;28;20438;-45
2023/09/26 07:52:00;;;;;;;34.43;32.93;;;;;;;17.68;100.00;102265.28;4975286;28;20460;-39
2023/09/26 07:54:28;;;;;;;32.80;31.20;;;;;;;17.47;100.00;102266.25;4975716;28;20430;-39
2023/09/26 07:56:55;;;;;;;33.53;31.93;;;;;;;17.23;100.00;102268.69;4975405;28;20489;-39
2023/09/26 07:59:23;;;;;;;32.67;30.97;;;;;;;17.39;100.00;102276.41;4983876;28;20926;-41
2023/09/26 08:01:52;;;;;;;30.17;28.57;;;;;;;17.26;100.00;102284.47;4983790;28;20475;-40
2023/09/26 08:04:20;;;;;;;34.30;32.80;;;;;;;17.23;100.00;102282.19;4975962;28;20489;-42
2023/09/26 08:06:48;;;;;;;33.80;32.40;;;;;;;17.42;100.00;102281.38;4975277;28;20490;-40
2023/09/26 08:09:16;;;;;;;34.20;32.50;;;;;;;17.47;100.00;102281.63;4984147;28;20443;-42
2023/09/26 08:11:44;;;;;;;35.73;34.10;;;;;;;17.58;100.00;102275.66;4975431;28;20954;-45
2023/09/26 08:14:11;;;;;;;37.40;35.60;;;;;;;17.66;100.00;102267.34;4975997;28;20461;-40
2023/09/26 08:16:39;;;;;;;39.00;37.20;;;;;;;17.64;100.00;102275.66;4975232;28;20509;-41
2023/09/26 08:19:08;;;;;;;35.63;34.10;;;;;;;17.79;100.00;102271.94;4975893;28;20508;-39
2023/09/26 08:21:36;;;;;;;33.53;31.93;;;;;;;17.95;100.00;102266.13;4974819;28;20780;-40
2023/09/26 08:24:04;;;;;;;34.80;33.10;;;;;;;18.03;100.00;102255.94;4975319;28;20500;-40
2023/09/26 08:26:31;;;;;;;36.30;34.80;;;;;;;18.23;100.00;102259.44;4977333;28;20635;-39
2023/09/26 08:28:59;;;;;;;30.37;28.77;;;;;;;18.44;100.00;102258.38;4979036;28;20461;-45
2023/09/26 08:31:27;;;;;;;31.70;30.30;;;;;;;18.73;100.00;102257.03;4978760;28;20996;-41
2023/09/26 08:33:55;;;;;;;31.80;30.40;;;;;;;18.66;100.00;102265.19;4974639;28;20509;-40
2023/09/26 08:36:24;;;;;;;30.40;28.70;;;;;;;18.77;100.00;102263.69;4974480;28;20525;-40
2023/09/26 08:38:52;;;;;;;27.03;25.83;;;;;;;19.04;100.00;102264.41;4982417;28;20441;-43
2023/09/26 08:41:20;;;;;;;27.67;26.37;;;;;;;18.96;100.00;102259.25;4974360;28;20450;-43
2023/09/26 08:43:48;;;;;;;28.13;26.73;;;;;;;18.95;100.00;102258.41;4974245;28;20498;-42
2023/09/26 08:46:18;;;;;;;28.23;27.03;;;;;;;19.34;100.00;102260.91;4973390;28;20989;-41
2023/09/26 08:48:47;;;;;;;27.30;25.57;;;;;;;19.66;100.00;102258.22;4974148;28;20466;-43
2023/09/26 08:51:14;;;;;;;24.30;23.30;;;;;;;19.72;100.00;102247.34;4974007;28;20510;-43
2023/09/26 08:53:44;;;;;;;22.00;21.20;;;;;;;19.97;100.00;102235.69;4973721;28;20497;-43
2023/09/26 08:56:12;;;;;;;19.20;18.40;;;;;;;20.19;100.00;102231.53;4973404;28;20493;-40
2023/09/26 08:58:41;;;;;;;18.60;17.70;;;;;;;20.39;100.00;102232.16;4973803;28;20804;-40
2023/09/26 09:01:09;;;;;;;18.73;17.83;;;;;;;20.70;100.00;102234.69;4973533;28;20427;-43
2023/09/26 09:03:37;;;;;;;19.03;17.87;;;;;;;21.02;100.00;102227.22;4973462;28;20470;-40
2023/09/26 09:06:05;;;;;;;16.07;15.27;;;;;;;21.22;100.00;102218.81;4977208;28;21060;-41
2023/09/26 09:08:33;;;;;;;15.30;14.60;;;;;;;21.34;100.00;102222.38;4977138;28;21002;-40
2023/09/26 09:11:02;;;;;;;15.13;14.43;;;;;;;21.43;100.00;102240.00;4969026;28;20439;-44
2023/09/26 09:13:31;;;;;;;13.27;12.73;;;;;;;21.53;100.00;102238.34;4977275;28;20464;-43
2023/09/26 09:16:10;;;;;;;12.20;11.07;;;;;;;21.57;100.00;102240.59;4981041;28;20462;-41
2023/09/26 09:18:38;;;;;;;10.17;9.57;;;;;;;21.24;100.00;102231.06;4981228;28;21025;-41
2023/09/26 09:21:24;;;;;;;9.00;8.50;;;;;;;21.01;100.00;102219.28;4981371;28;20441;-42
2023/09/26 09:23:53;;;;;;;9.73;9.00;;;;;;;20.89;100.00;102221.94;4975163;28;20450;-39
2023/09/26 09:26:24;;;;;;;8.63;8.23;;;;;;;21.07;100.00;102211.06;4990262;28;20493;-40
2023/09/26 09:28:55;;;;;;;8.70;8.00;;;;;;;21.14;100.00;102202.88;4974529;28;20462;-41
2023/09/26 09:31:23;;;;;;;8.50;8.10;;;;;;;21.39;100.00;102217.06;4972890;28;20465;-42
2023/09/26 09:33:52;;;;;;;8.30;7.80;;;;;;;21.63;100.00;102226.09;4975199;28;20834;-44
2023/09/26 09:36:21;;;;;;;7.77;7.47;;;;;;;21.66;100.00;102220.19;4977974;28;20985;-40
2023/09/26 09:38:49;;;;;;;10.00;9.10;;;;;;;21.80;100.00;102217.00;4973012;28;20439;-45
2023/09/26 09:41:19;;;;;;;7.00;6.60;;;;;;;21.89;100.00;102207.50;4972953;28;20435;-42
2023/09/26 09:43:48;;;;;;;7.50;7.20;;;;;;;21.87;100.00;102201.44;4972784;28;20458;-43
2023/09/26 09:46:17;;;;;;;7.00;6.60;;;;;;;22.00;100.00;102201.25;4972587;28;20524;-39
2023/09/26 09:48:46;;;;;;;7.00;6.50;;;;;;;22.15;100.00;102205.38;4972423;28;20522;-43
2023/09/26 09:51:16;;;;;;;6.80;6.50;;;;;;;22.16;100.00;102199.69;4972448;28;20433;-43
2023/09/26 09:53:53;;;;;;;6.77;6.27;;;;;;;22.15;100.00;102208.09;4972953;28;20459;-46
2023/09/26 09:56:24;;;;;;;6.90;6.50;;;;;;;22.09;96.15;102207.16;4972398;28;20549;-42
2023/09/26 09:59:00;;;;;;;6.37;5.87;;;;;;;22.20;99.86;102198.16;4972760;28;20807;-42
2023/09/26 10:01:30;;;;;;;6.40;6.00;;;;;;;22.27;99.06;102201.56;4972394;28;20466;-40
2023/09/26 10:03:58;;;;;;;5.53;5.33;;;;;;;22.44;96.77;102193.50;4980711;28;20896;-39
2023/09/26 10:06:26;;;;;;;7.37;6.87;;;;;;;22.60;96.98;102204.47;4972085;28;20466;-40
2023/09/26 10:08:56;;;;;;;8.97;6.50;;;;;;;22.75;96.90;102201.25;4972686;28;20926;-42
2023/09/26 10:11:27;;;;;;;6.67;6.27;;;;;;;22.87;93.50;102195.75;4972515;28;20791;-44
2023/09/26 10:13:57;;;;;;;7.73;7.23;;;;;;;22.95;92.10;102198.06;4974620;28;20460;-40
2023/09/26 10:16:25;;;;;;;7.10;6.67;;;;;;;23.01;93.33;102203.38;4977006;28;20467;-45
2023/09/26 10:18:53;;;;;;;6.30;6.00;;;;;;;22.89;87.79;102188.16;4972694;28;21029;-40
2023/09/26 10:21:23;;;;;;;6.40;5.97;;;;;;;22.73;91.34;102183.53;4972372;28;20442;-42
2023/09/26 10:24:30;;;;;;;6.20;5.90;;;;;;;22.72;91.32;102173.72;4980403;28;20541;-39
2023/09/26 10:27:08;;;;;;;8.00;5.57;;;;;;;22.53;89.37;102179.28;4969941;28;20465;-39
2023/09/26 10:29:55;;;;;;;6.57;6.17;;;;;;;22.53;91.22;102179.28;4972462;28;20442;-39
2023/09/26 10:32:32;;;;;;;5.77;5.53;;;;;;;22.58;91.88;102171.22;4972409;28;21053;-43
2023/09/26 10:35:01;;;;;;;6.30;6.00;;;;;;;22.49;89.82;102171.88;4971635;28;20436;-40
2023/09/26 10:37:28;;;;;;;5.50;5.03;;;;;;;22.48;89.36;102160.16;4972336;28;20435;-39
2023/09/26 10:39:56;;;;;;;5.90;5.40;;;;;;;22.38;89.93;102168.09;4972038;28;20431;-41
2023/09/26 10:42:25;;;;;;;5.50;5.20;;;;;;;22.56;91.80;102165.22;4971968;28;20454;-41
2023/09/26 10:45:14;;;;;;;6.57;6.07;;;;;;;22.93;91.22;102157.53;4964814;28;20550;-39
2023/09/26 10:47:42;;;;;;;5.83;5.47;;;;;;;23.18;91.75;102154.41;4972007;28;20482;-41
2023/09/26 10:50:14;;;;;;;6.17;5.77;;;;;;;23.05;87.83;102152.84;4972230;28;20439;-41
2023/09/26 10:52:46;;;;;;;6.00;5.70;;;;;;;23.16;87.59;102142.97;4971661;28;20489;-41
2023/09/26 10:55:15;;;;;;;5.37;4.87;;;;;;;23.27;88.17;102152.94;4971353;28;20454;-43
2023/09/26 10:57:44;;;;;;;5.83;5.47;;;;;;;23.37;87.79;102150.41;4971919;28;20469;-42
2023/09/26 11:00:15;;;;;;;5.53;4.70;;;;;;;23.41;85.37;102151.59;4972045;28;20466;-41
2023/09/26 11:02:44;;;;;;;5.23;5.03;;;;;;;23.11;83.73;102145.59;4975391;28;20458;-41
2023/09/26 11:05:14;;;;;;;5.53;5.23;;;;;;;22.99;84.01;102144.84;4983426;28;20469;-40
2023/09/26 11:07:44;;;;;;;5.87;5.47;;;;;;;23.04;82.96;102145.75;4983630;28;20520;-41
2023/09/26 11:10:13;;;;;;;5.47;5.07;;;;;;;23.17;83.97;102139.19;4975738;28;20438;-41
2023/09/26 11:12:42;;;;;;;5.10;4.80;;;;;;;23.23;82.86;102143.63;4975609;28;20453;-43
2023/09/26 11:15:10;;;;;;;5.27;4.87;;;;;;;23.33;81.13;102135.63;4983090;28;20434;-39